EDDE/ERF METAR and TAF weather

Enter ICAO airport designator
Station Type Date Time Source
EDDE METAR 2022/06/27 08:20 UTC NOAA

EDDE 270820Z AUTO VRB03KT CAVOK 24/16 Q1014 NOSIG


Station Type Date Time Source
EDDE Decoded METAR 2022/06/27 08:20 UTC NOAA

Erfurt-Bindersleben, Germany (EDDE) 50-59N 010-58E 322M
Jun 27, 2022 - 04:20 AM EDT / 2022.06.27 0820 UTC
Wind: Variable at 3 MPH (3 KT):0
Visibility: greater than 7 mile(s):0
Temperature: 75 F (24 C)
Dew Point: 60 F (16 C)
Relative Humidity: 60%
Pressure (altimeter): 29.94 in. Hg (1014 hPa)
ob: EDDE 270820Z AUTO VRB03KT CAVOK 24/16 Q1014 NOSIG
cycle: 8

Station Type Date Time Source
EDDE TAF 2022/06/27 06:27 UTC NOAA

TAF TAF EDDE 270500Z 2706/2806 27008KT CAVOK PROB40
TEMPO 2719/2723 29015G25KT 4000 TSRA BKN015CB PROB30
TEMPO 2802/2806 BKN010

Example: see airport list